Time;durP1;ratioP1;P1;durP2;ratioP2;P2;SDS_P1;SDS_P2;PMS_P1;PMS_P2;Temp;Humidity;BMP_temperature;BMP_pressure;BME280_temperature;BME280_humidity;BME280_pressure;Samples;Min_cycle;Max_cycle;Signal;HPM_P1;HPM_P2
2024/02/19 00:00:19;;;;;;;;;;;;;;;4.08;80.31;100574.22;5116526;28;19976;-69
2024/02/19 00:02:49;;;;;;;;;;;;;;;4.14;80.14;100569.41;5116782;28;19973;-68
2024/02/19 00:05:18;;;;;;;;;;;;;;;4.16;80.03;100572.00;5116804;28;19927;-69
2024/02/19 00:07:47;;;;;;;;;;;;;;;4.09;79.77;100560.78;5116762;28;19931;-69
2024/02/19 00:10:15;;;;;;;;;;;;;;;4.14;80.12;100553.41;5115573;28;19930;-68
2024/02/19 00:12:44;;;;;;;;;;;;;;;4.22;80.03;100559.63;5116527;28;19919;-67
2024/02/19 00:15:12;;;;;;;;;;;;;;;4.25;79.98;100562.25;5116202;28;19920;-68
2024/02/19 00:17:41;;;;;;;;;;;;;;;4.22;79.85;100565.53;5116569;28;20010;-68
2024/02/19 00:20:11;;;;;;;;;;;;;;;4.29;80.13;100561.56;5116169;28;19919;-69
2024/02/19 00:22:40;;;;;;;;;;;;;;;4.26;79.78;100559.78;5116281;28;19926;-68
2024/02/19 00:25:09;;;;;;;;;;;;;;;4.20;79.86;100553.66;5115864;28;19941;-69
2024/02/19 00:27:37;;;;;;;;;;;;;;;4.18;79.73;100555.22;5116143;28;19980;-68
2024/02/19 00:30:06;;;;;;;;;;;;;;;4.10;79.42;100547.38;5115154;28;19976;-68
2024/02/19 00:32:35;;;;;;;;;;;;;;;4.03;79.89;100546.25;5116261;28;19920;-68
2024/02/19 00:35:04;;;;;;;;;;;;;;;3.96;79.97;100544.28;5115702;28;20014;-68
2024/02/19 00:37:34;;;;;;;;;;;;;;;3.95;79.94;100542.59;5116185;28;20084;-68
2024/02/19 00:40:04;;;;;;;;;;;;;;;3.99;80.18;100534.31;5115792;28;19926;-68
2024/02/19 00:42:33;;;;;;;;;;;;;;;4.01;80.36;100532.72;5116169;28;19926;-68
2024/02/19 00:45:01;;;;;;;;;;;;;;;4.08;80.43;100528.75;5114965;28;20018;-68
2024/02/19 00:47:29;;;;;;;;;;;;;;;4.11;79.58;100525.47;5115593;28;19923;-68
2024/02/19 00:49:58;;;;;;;;;;;;;;;4.16;80.42;100534.09;5115710;28;19920;-67
2024/02/19 00:52:26;;;;;;;;;;;;;;;4.17;80.27;100531.66;5115616;28;19920;-68
2024/02/19 00:54:57;;;;;;;;;;;;;;;4.16;80.71;100534.97;5115257;28;19926;-68
2024/02/19 00:57:26;;;;;;;;;;;;;;;4.22;80.76;100526.78;5115587;28;19942;-68
2024/02/19 00:59:54;;;;;;;;;;;;;;;4.27;80.46;100535.38;5115597;28;19973;-68
2024/02/19 01:02:23;;;;;;;;;;;;;;;4.26;80.65;100524.41;5115489;28;19973;-68
2024/02/19 01:04:53;;;;;;;;;;;;;;;4.30;80.63;100535.47;5115312;28;19919;-68
2024/02/19 01:07:22;;;;;;;;;;;;;;;4.35;80.19;100534.00;5115488;28;20331;-69
2024/02/19 01:09:50;;;;;;;;;;;;;;;4.36;80.49;100525.63;5114979;28;19926;-68
2024/02/19 01:12:20;;;;;;;;;;;;;;;4.33;80.54;100523.84;5115542;28;20380;-69
2024/02/19 01:14:49;;;;;;;;;;;;;;;4.42;80.73;100520.78;5115297;28;19920;-69
2024/02/19 01:17:17;;;;;;;;;;;;;;;4.46;80.82;100515.91;5113939;28;19927;-69
2024/02/19 01:19:46;;;;;;;;;;;;;;;4.53;80.86;100514.47;5115155;28;19977;-69
2024/02/19 01:22:14;;;;;;;;;;;;;;;4.56;80.91;100505.31;5114792;27;20281;-68
2024/02/19 01:24:43;;;;;;;;;;;;;;;4.60;81.18;100501.25;5114705;28;19942;-68
2024/02/19 01:27:11;;;;;;;;;;;;;;;4.57;81.01;100491.03;5114980;28;19919;-68
2024/02/19 01:29:41;;;;;;;;;;;;;;;4.56;81.53;100492.69;5113739;28;19920;-68
2024/02/19 01:32:11;;;;;;;;;;;;;;;4.59;81.22;100484.34;5113760;28;19927;-68
2024/02/19 01:34:40;;;;;;;;;;;;;;;4.56;81.48;100489.28;5114560;28;19920;-69
2024/02/19 01:37:09;;;;;;;;;;;;;;;4.54;81.36;100489.25;5114824;28;20400;-68
2024/02/19 01:39:38;;;;;;;;;;;;;;;4.62;81.35;100487.88;5115027;28;19978;-68
2024/02/19 01:42:07;;;;;;;;;;;;;;;4.67;81.30;100485.50;5115338;28;19920;-68
2024/02/19 01:44:36;;;;;;;;;;;;;;;4.60;81.27;100481.03;5114605;28;20446;-69
2024/02/19 01:47:08;;;;;;;;;;;;;;;4.60;81.19;100476.84;5114828;28;20385;-68
2024/02/19 01:49:38;;;;;;;;;;;;;;;4.64;81.31;100477.78;5114584;28;19924;-68
2024/02/19 01:52:07;;;;;;;;;;;;;;;4.65;81.64;100477.00;5113643;28;19924;-68
2024/02/19 01:54:37;;;;;;;;;;;;;;;4.62;81.35;100469.31;5114450;28;19925;-68
2024/02/19 01:57:06;;;;;;;;;;;;;;;4.68;81.31;100466.97;5114456;28;20323;-68
2024/02/19 01:59:34;;;;;;;;;;;;;;;4.69;81.18;100476.28;5115048;28;19921;-68
2024/02/19 02:02:03;;;;;;;;;;;;;;;4.67;81.55;100465.28;5114687;28;19919;-68
2024/02/19 02:04:34;;;;;;;;;;;;;;;4.64;81.39;100472.75;5114626;28;19919;-67
2024/02/19 02:07:02;;;;;;;;;;;;;;;4.67;81.29;100467.78;5113010;28;19970;-69
2024/02/19 02:09:31;;;;;;;;;;;;;;;4.70;81.16;100467.91;5114367;28;20018;-68
2024/02/19 02:11:59;;;;;;;;;;;;;;;4.78;81.20;100458.03;5114290;28;19927;-67
2024/02/19 02:14:28;;;;;;;;;;;;;;;4.85;81.27;100452.41;5114302;28;19956;-69
2024/02/19 02:16:56;;;;;;;;;;;;;;;4.89;81.13;100444.97;5114308;28;19965;-68
2024/02/19 02:19:24;;;;;;;;;;;;;;;4.84;81.51;100436.38;5114320;28;19919;-68
2024/02/19 02:21:55;;;;;;;;;;;;;;;4.76;81.16;100442.81;5114559;28;19965;-67
2024/02/19 02:24:23;;;;;;;;;;;;;;;4.83;81.18;100443.88;5113094;28;19943;-68
2024/02/19 02:26:53;;;;;;;;;;;;;;;4.81;81.11;100433.75;5096339;28;19926;-69
2024/02/19 02:29:21;;;;;;;;;;;;;;;4.75;80.99;100433.53;5114524;28;20272;-69
2024/02/19 02:31:50;;;;;;;;;;;;;;;4.78;81.28;100431.09;5114826;28;20272;-68
2024/02/19 02:34:18;;;;;;;;;;;;;;;4.80;81.32;100428.63;5114073;28;19930;-67
2024/02/19 02:36:47;;;;;;;;;;;;;;;4.80;81.42;100414.31;5114454;28;19919;-68
2024/02/19 02:39:16;;;;;;;;;;;;;;;4.87;81.41;100405.28;5114077;28;20381;-68
2024/02/19 02:41:44;;;;;;;;;;;;;;;4.86;81.17;100399.34;5114089;28;20014;-68
2024/02/19 02:44:15;;;;;;;;;;;;;;;4.73;81.38;100387.09;5113853;28;19919;-67
2024/02/19 02:46:44;;;;;;;;;;;;;;;4.64;81.52;100376.69;5114407;28;19973;-68
2024/02/19 02:49:12;;;;;;;;;;;;;;;4.56;81.57;100367.97;5114334;28;19920;-68
2024/02/19 02:51:41;;;;;;;;;;;;;;;4.55;81.66;100386.47;5114299;28;19969;-67
2024/02/19 02:54:10;;;;;;;;;;;;;;;4.58;81.87;100391.66;5114273;28;20391;-67
2024/02/19 02:56:38;;;;;;;;;;;;;;;4.64;81.95;100386.78;5114259;28;19938;-67
2024/02/19 02:59:06;;;;;;;;;;;;;;;4.70;82.08;100392.91;5114231;28;19924;-68
2024/02/19 03:01:37;;;;;;;;;;;;;;;4.73;82.31;100382.91;5114272;28;19965;-67
2024/02/19 03:04:06;;;;;;;;;;;;;;;4.75;82.11;100380.44;5114238;28;19967;-68
2024/02/19 03:06:34;;;;;;;;;;;;;;;4.78;82.06;100374.59;5114296;28;20297;-69
2024/02/19 03:09:05;;;;;;;;;;;;;;;4.76;82.48;100369.50;5117854;28;19920;-69
2024/02/19 03:11:34;;;;;;;;;;;;;;;4.78;82.43;100378.00;5117595;28;19919;-68
2024/02/19 03:14:02;;;;;;;;;;;;;;;4.85;82.39;100387.50;5117814;28;19927;-68
2024/02/19 03:16:30;;;;;;;;;;;;;;;4.85;82.68;100387.50;5117383;28;19924;-68
2024/02/19 03:19:00;;;;;;;;;;;;;;;4.88;82.39;100387.63;5117460;27;20273;-67
2024/02/19 03:21:29;;;;;;;;;;;;;;;4.92;82.54;100379.31;5116455;28;20019;-68
2024/02/19 03:23:57;;;;;;;;;;;;;;;4.98;82.89;100376.13;5117544;28;19927;-68
2024/02/19 03:26:27;;;;;;;;;;;;;;;5.01;82.48;100378.78;5117161;28;19919;-68
2024/02/19 03:28:59;;;;;;;;;;;;;;;5.00;82.34;100377.91;5116476;28;19920;-68
2024/02/19 03:31:28;;;;;;;;;;;;;;;5.07;82.49;100387.41;5117428;28;19924;-68
2024/02/19 03:33:57;;;;;;;;;;;;;;;5.11;82.46;100391.75;5117127;28;20274;-69
2024/02/19 03:36:27;;;;;;;;;;;;;;;5.11;82.52;100391.75;5117066;28;19919;-67
2024/02/19 03:38:55;;;;;;;;;;;;;;;5.13;82.43;100390.16;5117400;28;19920;-69
2024/02/19 03:41:24;;;;;;;;;;;;;;;5.16;82.39;100392.75;5117353;28;19972;-68
2024/02/19 03:43:52;;;;;;;;;;;;;;;5.17;82.56;100386.91;5116777;28;19920;-68
2024/02/19 03:46:21;;;;;;;;;;;;;;;5.18;82.11;100388.59;5117214;28;19928;-68
2024/02/19 03:48:49;;;;;;;;;;;;;;;5.23;82.04;100392.13;5117480;28;20018;-68
2024/02/19 03:51:18;;;;;;;;;;;;;;;5.22;82.18;100385.38;5116727;28;20339;-68
2024/02/19 03:53:48;;;;;;;;;;;;;;;5.22;82.25;100385.38;5117049;28;20277;-68
2024/02/19 03:56:17;;;;;;;;;;;;;;;5.27;82.20;100378.78;5116925;28;19927;-69
2024/02/19 03:58:46;;;;;;;;;;;;;;;5.32;81.87;100382.31;5116890;28;20366;-68
2024/02/19 04:01:14;;;;;;;;;;;;;;;5.33;82.21;100384.03;5115640;28;19976;-68
2024/02/19 04:03:43;;;;;;;;;;;;;;;5.37;82.04;100378.25;5116415;28;20327;-68
2024/02/19 04:06:12;;;;;;;;;;;;;;;5.40;82.03;100369.88;5115466;28;19920;-68
2024/02/19 04:08:41;;;;;;;;;;;;;;;5.46;82.26;100369.22;5116790;28;20369;-68
2024/02/19 04:11:13;;;;;;;;;;;;;;;5.47;81.69;100368.41;5116708;28;19966;-68
2024/02/19 04:13:42;;;;;;;;;;;;;;;5.49;81.98;100359.19;5116447;28;19958;-68
2024/02/19 04:16:10;;;;;;;;;;;;;;;5.50;81.84;100345.72;5116598;28;19920;-68
2024/02/19 04:18:39;;;;;;;;;;;;;;;5.45;82.01;100327.84;5115619;28;19970;-67
2024/02/19 04:21:07;;;;;;;;;;;;;;;5.43;81.72;100326.97;5116544;28;19919;-67
2024/02/19 04:23:36;;;;;;;;;;;;;;;5.43;81.86;100330.34;5115042;28;19969;-67
2024/02/19 04:26:04;;;;;;;;;;;;;;;5.48;81.60;100327.09;5116019;28;20429;-68
2024/02/19 04:28:34;;;;;;;;;;;;;;;5.49;81.79;100328.81;5116332;28;20048;-68
2024/02/19 04:31:03;;;;;;;;;;;;;;;5.47;81.74;100330.47;5116691;28;20345;-67
2024/02/19 04:33:31;;;;;;;;;;;;;;;5.44;81.35;100341.34;5114949;28;20026;-68
2024/02/19 04:36:00;;;;;;;;;;;;;;;5.43;81.89;100335.41;5115876;27;20468;-68
2024/02/19 04:38:28;;;;;;;;;;;;;;;5.46;81.97;100324.53;5116070;28;20381;-68
2024/02/19 04:40:56;;;;;;;;;;;;;;;5.52;81.63;100323.84;5116112;28;19920;-68
2024/02/19 04:43:25;;;;;;;;;;;;;;;5.50;81.86;100317.88;5115979;28;19926;-68
2024/02/19 04:45:55;;;;;;;;;;;;;;;5.47;81.63;100326.22;5114842;28;20006;-68
2024/02/19 04:48:24;;;;;;;;;;;;;;;5.42;81.83;100323.56;5115658;28;19926;-68
2024/02/19 04:50:52;;;;;;;;;;;;;;;5.43;82.11;100315.16;5115936;28;19970;-67
2024/02/19 04:53:20;;;;;;;;;;;;;;;5.48;82.21;100316.97;5114670;28;20010;-66
2024/02/19 04:55:49;;;;;;;;;;;;;;;5.49;82.33;100311.97;5115702;28;19920;-68
2024/02/19 04:58:17;;;;;;;;;;;;;;;5.49;82.24;100290.84;5115946;28;19980;-68
2024/02/19 05:00:46;;;;;;;;;;;;;;;5.48;81.86;100291.66;5114553;28;19920;-67
2024/02/19 05:03:16;;;;;;;;;;;;;;;5.47;82.04;100285.72;5114264;28;19924;-68
2024/02/19 05:05:46;;;;;;;;;;;;;;;5.50;82.41;100295.09;5115283;28;19919;-69
2024/02/19 05:08:14;;;;;;;;;;;;;;;5.49;82.05;100288.31;5115831;28;19969;-68
2024/02/19 05:10:43;;;;;;;;;;;;;;;5.50;82.25;100290.03;5115204;28;19924;-68
2024/02/19 05:13:11;;;;;;;;;;;;;;;5.54;82.23;100296.91;5115295;28;19924;-68
2024/02/19 05:15:40;;;;;;;;;;;;;;;5.58;81.91;100293.66;5115360;28;20050;-68
2024/02/19 05:18:08;;;;;;;;;;;;;;;5.62;81.91;100303.91;5115038;28;19970;-69
2024/02/19 05:20:39;;;;;;;;;;;;;;;5.64;82.11;100291.31;5115403;28;20018;-67
2024/02/19 05:23:07;;;;;;;;;;;;;;;5.61;82.54;100293.75;5115026;28;20331;-68
2024/02/19 05:25:36;;;;;;;;;;;;;;;5.61;82.30;100293.75;5114806;28;19924;-68
2024/02/19 05:28:04;;;;;;;;;;;;;;;5.62;82.00;100285.31;5115564;28;19927;-67
2024/02/19 05:30:33;;;;;;;;;;;;;;;5.66;82.35;100284.59;5115374;28;20010;-68
2024/02/19 05:33:02;;;;;;;;;;;;;;;5.66;82.29;100292.19;5115465;28;20370;-69
2024/02/19 05:35:30;;;;;;;;;;;;;;;5.66;81.86;100284.59;5115070;28;19919;-68
2024/02/19 05:38:00;;;;;;;;;;;;;;;5.67;81.89;100286.31;5115180;28;19919;-68
2024/02/19 05:40:28;;;;;;;;;;;;;;;5.68;82.37;100280.44;5115368;28;19920;-69
2024/02/19 05:42:57;;;;;;;;;;;;;;;5.70;82.03;100278.81;5113509;28;20312;-69
2024/02/19 05:45:26;;;;;;;;;;;;;;;5.69;82.08;100272.00;5114927;28;19920;-67
2024/02/19 05:47:54;;;;;;;;;;;;;;;5.67;81.99;100278.72;5113506;28;19919;-68
2024/02/19 05:50:23;;;;;;;;;;;;;;;5.67;82.22;100278.72;5114863;28;20026;-68
2024/02/19 05:52:52;;;;;;;;;;;;;;;5.69;82.37;100277.06;5113488;28;19920;-68
2024/02/19 05:55:21;;;;;;;;;;;;;;;5.72;82.52;100274.63;5114774;28;19919;-69
2024/02/19 05:57:50;;;;;;;;;;;;;;;5.73;82.09;100281.44;5114768;28;20010;-69
2024/02/19 06:00:19;;;;;;;;;;;;;;;5.74;82.27;100280.59;5114735;28;19926;-68
2024/02/19 06:02:47;;;;;;;;;;;;;;;5.76;82.18;100286.59;5114768;28;19919;-68
2024/02/19 06:05:16;;;;;;;;;;;;;;;5.75;82.70;100277.25;5114648;28;19953;-68
2024/02/19 06:07:45;;;;;;;;;;;;;;;5.74;82.60;100285.66;5114678;28;20388;-67
2024/02/19 06:10:13;;;;;;;;;;;;;;;5.73;82.18;100286.50;5096451;28;19923;-68
2024/02/19 06:12:44;;;;;;;;;;;;;;;5.66;82.55;100295.59;5114683;28;19926;-69
2024/02/19 06:15:12;;;;;;;;;;;;;;;5.67;82.41;100289.69;5114658;28;19920;-67
2024/02/19 06:17:40;;;;;;;;;;;;;;;5.69;83.14;100292.25;5114338;28;20026;-69
2024/02/19 06:20:09;;;;;;;;;;;;;;;5.72;83.00;100297.44;5114188;28;19920;-68
2024/02/19 06:22:38;;;;;;;;;;;;;;;5.75;83.26;100289.91;5114508;28;20464;-67
2024/02/19 06:25:06;;;;;;;;;;;;;;;5.78;83.06;100290.00;5114008;28;19966;-67
2024/02/19 06:27:35;;;;;;;;;;;;;;;5.75;83.02;100287.38;5114467;28;19966;-69
2024/02/19 06:30:05;;;;;;;;;;;;;;;5.75;82.78;100287.38;5114426;28;20074;-68
2024/02/19 06:32:34;;;;;;;;;;;;;;;5.76;82.71;100291.66;5114055;28;19923;-68
2024/02/19 06:35:02;;;;;;;;;;;;;;;5.78;82.75;100290.84;5114457;28;20270;-68
2024/02/19 06:37:32;;;;;;;;;;;;;;;5.79;82.89;100294.25;5112857;28;20440;-69
2024/02/19 06:40:01;;;;;;;;;;;;;;;5.80;83.34;100295.97;5114381;28;19923;-67
2024/02/19 06:42:30;;;;;;;;;;;;;;;5.84;83.38;100297.78;5116339;28;20362;-67
2024/02/19 06:44:58;;;;;;;;;;;;;;;5.86;83.83;100296.16;5118234;28;19974;-67
2024/02/19 06:47:28;;;;;;;;;;;;;;;5.85;83.82;100300.41;5118307;28;19986;-68
2024/02/19 06:49:57;;;;;;;;;;;;;;;5.86;83.54;100296.16;5118448;28;19931;-68
2024/02/19 06:52:25;;;;;;;;;;;;;;;5.87;83.94;100295.38;5118155;28;19962;-66
2024/02/19 06:54:54;;;;;;;;;;;;;;;5.90;84.13;100301.34;5118106;28;19924;-68
2024/02/19 06:57:22;;;;;;;;;;;;;;;5.92;84.17;100301.41;5117923;28;19958;-68
2024/02/19 06:59:51;;;;;;;;;;;;;;;5.95;84.29;100297.28;5118052;28;19920;-68
2024/02/19 07:02:20;;;;;;;;;;;;;;;5.94;84.44;100304.84;5118325;28;20321;-67
2024/02/19 07:04:50;;;;;;;;;;;;;;;5.96;85.13;100298.16;5117803;28;20015;-68
2024/02/19 07:07:18;;;;;;;;;;;;;;;5.98;85.44;100304.09;5116712;28;19919;-67
2024/02/19 07:09:47;;;;;;;;;;;;;;;5.99;85.59;100298.22;5117883;27;19986;-67
2024/02/19 07:12:16;;;;;;;;;;;;;;;5.99;85.76;100303.31;5117825;28;20358;-68
2024/02/19 07:14:44;;;;;;;;;;;;;;;6.03;86.11;100302.56;5117593;28;19930;-67
2024/02/19 07:17:12;;;;;;;;;;;;;;;6.09;86.17;100300.22;5116351;28;19919;-67
2024/02/19 07:19:41;;;;;;;;;;;;;;;6.16;86.21;100301.22;5117688;28;19982;-67
2024/02/19 07:22:11;;;;;;;;;;;;;;;6.21;86.25;100300.53;5117276;28;19920;-68
2024/02/19 07:24:39;;;;;;;;;;;;;;;6.22;86.88;100299.69;5116910;28;19926;-67
2024/02/19 07:27:09;;;;;;;;;;;;;;;6.20;86.98;100303.88;5117359;28;19919;-67
2024/02/19 07:29:40;;;;;;;;;;;;;;;6.24;86.88;100302.28;5116889;28;20309;-67
2024/02/19 07:32:09;;;;;;;;;;;;;;;6.28;87.28;100297.34;5117092;28;19965;-66
2024/02/19 07:34:38;;;;;;;;;;;;;;;6.33;87.19;100298.31;5117075;28;20377;-66
2024/02/19 07:37:12;;;;;;;;;;;;;;;6.31;87.51;100307.53;5116035;28;19958;-67
2024/02/19 07:39:41;;;;;;;;;;;;;;;6.29;87.52;100304.09;5117286;28;19968;-67
2024/02/19 07:42:10;;;;;;;;;;;;;;;6.26;88.15;100309.13;5115969;28;20018;-67
2024/02/19 07:44:38;;;;;;;;;;;;;;;6.30;88.14;100300.78;5117120;28;20335;-67
2024/02/19 07:47:07;;;;;;;;;;;;;;;6.37;88.26;100306.84;5115878;28;19920;-66
2024/02/19 07:49:35;;;;;;;;;;;;;;;6.43;88.37;100310.38;5117440;28;20354;-66
2024/02/19 07:52:04;;;;;;;;;;;;;;;6.46;87.57;100302.88;5117103;28;20343;-67
2024/02/19 07:54:34;;;;;;;;;;;;;;;6.50;88.07;100309.72;5115952;28;20419;-66
2024/02/19 07:57:03;;;;;;;;;;;;;;;6.56;87.54;100306.50;5116654;28;20289;-67
2024/02/19 07:59:31;;;;;;;;;;;;;;;6.61;87.97;100302.41;5117097;28;19919;-66
2024/02/19 08:02:00;;;;;;;;;;;;;;;6.66;88.58;100306.78;5116820;28;19967;-68
2024/02/19 08:04:29;;;;;;;;;;;;;;;6.70;87.60;100306.03;5115112;28;20359;-67
2024/02/19 08:06:57;;;;;;;;;;;;;;;6.74;88.10;100315.41;5115655;28;19923;-66
2024/02/19 08:09:29;;;;;;;;;;;;;;;6.79;88.37;100302.00;5116751;28;20011;-68
2024/02/19 08:11:58;;;;;;;;;;;;;;;6.78;87.70;100311.28;5116671;28;19920;-66
2024/02/19 08:14:27;;;;;;;;;;;;;;;6.80;88.02;100301.16;5114641;28;20010;-67
2024/02/19 08:16:56;;;;;;;;;;;;;;;6.79;88.17;100302.84;5116479;28;19919;-67
2024/02/19 08:19:24;;;;;;;;;;;;;;;6.83;88.04;100303.78;5098024;28;20351;-67
2024/02/19 08:21:53;;;;;;;;;;;;;;;6.83;88.50;100298.72;5115106;28;20350;-67
2024/02/19 08:24:21;;;;;;;;;;;;;;;6.86;87.79;100298.78;5116219;28;20014;-67
2024/02/19 08:26:50;;;;;;;;;;;;;;;6.87;88.11;100297.97;5116526;28;19919;-67
2024/02/19 08:29:20;;;;;;;;;;;;;;;6.89;87.84;100288.69;5116053;28;19951;-67
2024/02/19 08:31:50;;;;;;;;;;;;;;;6.90;88.08;100292.97;5116335;28;19943;-67
2024/02/19 08:34:18;;;;;;;;;;;;;;;6.90;87.70;100285.34;5116333;28;19920;-67
2024/02/19 08:36:47;;;;;;;;;;;;;;;6.92;87.97;100288.78;5116158;28;19927;-68
2024/02/19 08:39:16;;;;;;;;;;;;;;;6.89;87.92;100288.69;5115686;28;19927;-68
2024/02/19 08:41:45;;;;;;;;;;;;;;;6.89;87.98;100278.56;5115987;28;19955;-67
2024/02/19 08:44:14;;;;;;;;;;;;;;;6.91;88.49;100276.94;5115833;27;19919;-68
2024/02/19 08:46:43;;;;;;;;;;;;;;;6.93;88.84;100275.28;5115458;28;19919;-68
2024/02/19 08:49:12;;;;;;;;;;;;;;;6.91;88.71;100266.78;5115904;28;19920;-68
2024/02/19 08:51:40;;;;;;;;;;;;;;;6.88;88.85;100256.56;5115089;28;19920;-65
2024/02/19 08:54:10;;;;;;;;;;;;;;;6.85;88.33;100261.56;5115676;28;19920;-66
2024/02/19 08:56:39;;;;;;;;;;;;;;;6.87;88.63;100254.81;5114623;28;19923;-68
2024/02/19 08:59:07;;;;;;;;;;;;;;;6.93;88.74;100260.06;5116035;28;19920;-67
2024/02/19 09:01:35;;;;;;;;;;;;;;;6.95;88.71;100263.47;5115671;28;20022;-67
2024/02/19 09:04:06;;;;;;;;;;;;;;;7.02;88.57;100265.34;5115108;28;20332;-67
2024/02/19 09:06:34;;;;;;;;;;;;;;;7.11;89.70;100261.31;5115411;28;19920;-67
2024/02/19 09:09:03;;;;;;;;;;;;;;;7.16;89.23;100258.88;5115589;28;20280;-67
2024/02/19 09:11:31;;;;;;;;;;;;;;;7.13;89.32;100263.88;5114005;28;20266;-66
2024/02/19 09:14:01;;;;;;;;;;;;;;;7.16;88.67;100269.03;5109090;28;20702;-67
2024/02/19 09:16:29;;;;;;;;;;;;;;;7.18;88.92;100257.22;5112873;28;19980;-68
2024/02/19 09:18:59;;;;;;;;;;;;;;;7.20;89.20;100258.13;5096779;28;19970;-67
2024/02/19 09:21:30;;;;;;;;;;;;;;;7.18;88.81;100254.69;5114241;28;19969;-66
2024/02/19 09:23:59;;;;;;;;;;;;;;;7.16;88.32;100261.44;5115616;28;19951;-67
2024/02/19 09:26:27;;;;;;;;;;;;;;;7.15;88.26;100257.19;5114636;28;20327;-68
2024/02/19 09:28:56;;;;;;;;;;;;;;;7.14;88.53;100253.78;5114002;28;19966;-66
2024/02/19 09:31:25;;;;;;;;;;;;;;;7.16;88.04;100256.34;5115125;28;19953;-65
2024/02/19 09:33:54;;;;;;;;;;;;;;;7.13;88.85;100258.81;5114853;28;19941;-67
2024/02/19 09:36:23;;;;;;;;;;;;;;;7.08;88.47;100261.25;5115053;28;19919;-65
2024/02/19 09:38:53;;;;;;;;;;;;;;;7.07;88.53;100258.69;5113995;28;19977;-66
2024/02/19 09:41:21;;;;;;;;;;;;;;;7.10;88.59;100258.75;5115355;28;20334;-67
2024/02/19 09:43:51;;;;;;;;;;;;;;;7.13;88.49;100248.66;5114922;28;19965;-66
2024/02/19 09:46:22;;;;;;;;;;;;;;;7.15;88.92;100254.66;5096249;28;19919;-67
2024/02/19 09:48:51;;;;;;;;;;;;;;;7.18;88.32;100250.47;5114907;28;19973;-66
2024/02/19 09:51:21;;;;;;;;;;;;;;;7.19;89.07;100248.81;5114893;28;19920;-67
2024/02/19 09:54:05;;;;;;;;;;;;;;;7.23;89.20;100248.91;5115050;28;20022;-67
2024/02/19 09:56:34;;;;;;;;;;;;;;;7.25;88.75;100254.00;5114458;28;19919;-67
2024/02/19 09:59:05;;;;;;;;;;;;;;;7.25;88.56;100241.31;5101244;28;19920;-66
2024/02/19 10:01:35;;;;;;;;;;;;;;;7.25;88.71;100248.91;5104374;28;20056;-66
2024/02/19 10:04:04;;;;;;;;;;;;;;;7.24;88.66;100237.94;5103635;28;19920;-67
2024/02/19 10:06:36;;;;;;;;;;;;;;;7.25;88.66;100233.69;5103127;28;20038;-67
2024/02/19 10:09:08;;;;;;;;;;;;;;;7.31;89.67;100233.84;5102971;28;19927;-66
2024/02/19 10:11:36;;;;;;;;;;;;;;;7.32;89.44;100227.91;5105796;28;19926;-66
2024/02/19 10:14:04;;;;;;;;;;;;;;;7.28;88.94;100238.84;5114668;28;19965;-66
2024/02/19 10:16:33;;;;;;;;;;;;;;;7.29;88.86;100240.56;5114847;28;20349;-67
2024/02/19 10:19:05;;;;;;;;;;;;;;;7.31;88.80;100233.84;5118586;28;19920;-67
2024/02/19 10:21:34;;;;;;;;;;;;;;;7.31;89.00;100226.22;5119028;28;19926;-66
2024/02/19 10:24:02;;;;;;;;;;;;;;;7.29;89.48;100226.16;5118805;28;19919;-67
2024/02/19 10:26:33;;;;;;;;;;;;;;;7.26;89.27;100225.25;5117102;28;19919;-66
2024/02/19 10:29:01;;;;;;;;;;;;;;;7.23;89.36;100230.28;5118701;28;19973;-67
2024/02/19 10:31:31;;;;;;;;;;;;;;;7.22;89.32;100223.50;5118340;28;19972;-67
2024/02/19 10:33:59;;;;;;;;;;;;;;;7.20;88.69;100227.66;5118433;28;19919;-66
2024/02/19 10:36:30;;;;;;;;;;;;;;;7.19;89.67;100225.97;5118575;28;19927;-67
2024/02/19 10:38:59;;;;;;;;;;;;;;;7.23;89.41;100222.66;5118278;28;19927;-66
2024/02/19 10:41:28;;;;;;;;;;;;;;;7.24;89.86;100216.78;5117191;28;19969;-66
2024/02/19 10:43:58;;;;;;;;;;;;;;;7.23;90.00;100215.03;5118349;28;19926;-66
2024/02/19 10:46:26;;;;;;;;;;;;;;;7.19;89.63;100209.06;5118174;28;20015;-66
2024/02/19 10:48:56;;;;;;;;;;;;;;;7.19;89.74;100203.13;5118641;28;19933;-66
2024/02/19 10:51:25;;;;;;;;;;;;;;;7.20;90.18;100204.81;5118205;28;19920;-66
2024/02/19 10:54:00;;;;;;;;;;;;;;;7.20;90.54;100199.72;5118290;28;20354;-66
2024/02/19 10:56:35;;;;;;;;;;;;;;;7.20;90.68;100195.53;5118165;28;20021;-65
2024/02/19 10:59:07;;;;;;;;;;;;;;;7.20;91.07;100195.53;5118285;28;19927;-67
2024/02/19 11:01:43;;;;;;;;;;;;;;;7.26;91.22;100195.66;5118143;28;19942;-66
2024/02/19 11:04:13;;;;;;;;;;;;;;;7.28;91.25;100188.06;5117613;28;19920;-67
2024/02/19 11:06:45;;;;;;;;;;;;;;;7.32;90.84;100185.63;5118139;28;20254;-67
2024/02/19 11:09:14;;;;;;;;;;;;;;;7.33;91.26;100182.28;5116809;28;19958;-66
2024/02/19 11:11:47;;;;;;;;;;;;;;;7.31;91.09;100183.06;5117912;28;19920;-66
2024/02/19 11:14:22;;;;;;;;;;;;;;;7.34;91.32;100183.13;5099179;28;19919;-67
2024/02/19 11:16:53;;;;;;;;;;;;;;;7.41;91.02;100179.88;5117863;28;20031;-67
2024/02/19 11:19:23;;;;;;;;;;;;;;;7.45;91.46;100174.03;5117625;28;19919;-67
2024/02/19 11:22:01;;;;;;;;;;;;;;;7.51;91.06;100175.84;5117355;28;19963;-66
2024/02/19 11:24:31;;;;;;;;;;;;;;;7.51;91.71;100171.59;5117152;28;19927;-66
2024/02/19 11:26:59;;;;;;;;;;;;;;;7.51;91.66;100166.50;5116277;28;19920;-67
2024/02/19 11:29:29;;;;;;;;;;;;;;;7.56;91.60;100170.00;5116818;28;20396;-67
2024/02/19 11:32:12;;;;;;;;;;;;;;;7.57;92.28;100170.88;5116298;28;19919;-67
2024/02/19 11:34:40;;;;;;;;;;;;;;;7.57;92.01;100173.41;5116218;28;19920;-67
2024/02/19 11:37:10;;;;;;;;;;;;;;;7.57;92.12;100166.66;5117055;28;19966;-67
2024/02/19 11:39:39;;;;;;;;;;;;;;;7.55;92.63;100170.84;5117112;28;19923;-66
2024/02/19 11:42:11;;;;;;;;;;;;;;;7.55;91.87;100163.22;5117292;28;19967;-67
2024/02/19 11:44:43;;;;;;;;;;;;;;;7.58;91.96;100167.50;5117270;28;19947;-68
2024/02/19 11:47:13;;;;;;;;;;;;;;;7.58;92.24;100168.38;5116829;28;19966;-67
2024/02/19 11:49:45;;;;;;;;;;;;;;;7.62;92.08;100170.13;5117111;28;19926;-68
2024/02/19 11:52:15;;;;;;;;;;;;;;;7.62;92.27;100159.97;5117113;28;19968;-67
2024/02/19 11:54:44;;;;;;;;;;;;;;;7.61;92.58;100168.41;5117434;28;19967;-67
2024/02/19 11:57:13;;;;;;;;;;;;;;;7.63;92.46;100159.13;5098675;28;19955;-67
2024/02/19 11:59:47;;;;;;;;;;;;;;;7.61;92.55;100152.31;5116673;28;20353;-68
2024/02/19 12:02:18;;;;;;;;;;;;;;;7.62;91.70;100154.91;5116803;28;19958;-67
2024/02/19 12:04:51;;;;;;;;;;;;;;;7.65;92.33;100154.97;5116858;28;20038;-68
2024/02/19 12:07:20;;;;;;;;;;;;;;;7.71;92.74;100144.91;5116781;28;19927;-67
2024/02/19 12:09:48;;;;;;;;;;;;;;;7.76;92.64;100143.31;5116806;28;19923;-67
2024/02/19 12:12:19;;;;;;;;;;;;;;;7.79;92.83;100147.59;5115440;28;19920;-69
2024/02/19 12:14:51;;;;;;;;;;;;;;;7.82;91.88;100151.00;5116839;28;19920;-69
2024/02/19 12:17:22;;;;;;;;;;;;;;;7.88;92.76;100132.50;5116683;28;20010;-67
2024/02/19 12:19:51;;;;;;;;;;;;;;;7.95;92.79;100135.16;5116520;28;19923;-66
2024/02/19 12:22:24;;;;;;;;;;;;;;;8.02;92.56;100134.44;5116674;28;19923;-67
2024/02/19 12:24:53;;;;;;;;;;;;;;;8.07;93.46;100135.38;5115985;28;19920;-66
2024/02/19 12:27:22;;;;;;;;;;;;;;;8.17;92.88;100136.38;5115202;28;20010;-68
2024/02/19 12:29:52;;;;;;;;;;;;;;;8.26;93.72;100125.47;5116037;28;19934;-68
2024/02/19 12:32:21;;;;;;;;;;;;;;;8.32;93.04;100126.50;5116066;27;20361;-67
2024/02/19 12:34:49;;;;;;;;;;;;;;;8.35;92.95;100135.84;5116290;28;19923;-65
2024/02/19 12:37:18;;;;;;;;;;;;;;;8.32;92.99;100126.50;5115852;28;19931;-65
2024/02/19 12:39:47;;;;;;;;;;;;;;;8.31;93.33;100129.84;5115025;28;19919;-65
2024/02/19 12:42:15;;;;;;;;;;;;;;;8.30;93.11;100124.75;5116058;28;19920;-65
2024/02/19 12:44:44;;;;;;;;;;;;;;;8.29;93.36;100116.25;5116008;28;19919;-66
2024/02/19 12:47:14;;;;;;;;;;;;;;;8.24;93.10;100111.91;5115973;28;19959;-66
2024/02/19 12:49:42;;;;;;;;;;;;;;;8.18;92.66;100106.72;5115601;28;19927;-67
2024/02/19 12:52:11;;;;;;;;;;;;;;;8.12;92.88;100112.56;5116244;28;19920;-68
2024/02/19 12:54:46;;;;;;;;;;;;;;;8.09;92.97;100113.38;5097531;28;19920;-66
2024/02/19 12:57:15;;;;;;;;;;;;;;;8.08;92.66;100111.69;5115577;28;19924;-66